Time;durP1;ratioP1;P1;durP2;ratioP2;P2;SDS_P1;SDS_P2;PMS_P1;PMS_P2;Temp;Humidity;BMP_temperature;BMP_pressure;BME280_temperature;BME280_humidity;BME280_pressure;Samples;Min_cycle;Max_cycle;Signal;HPM_P1;HPM_P2
2022/08/09 00:01:02;;;;;;;;;;;589.70;2432.00;;;;;;5070911;28;20289;-56
2022/08/09 00:03:28;;;;;;;;;;;589.70;2432.00;;;;;;5071175;28;20015;-60
2022/08/09 00:05:54;;;;;;;;;;;589.70;2432.00;;;;;;5071084;28;19920;-54
2022/08/09 00:08:20;;;;;;;;;;;589.70;2432.00;;;;;;5071093;28;19920;-57
2022/08/09 00:10:45;;;;;;;;;;;589.60;2432.00;;;;;;5070713;28;19958;-59
2022/08/09 00:13:11;;;;;;;;;;;589.50;2432.00;;;;;;5071025;28;20010;-53
2022/08/09 00:15:36;;;;;;;;;;;589.40;2432.00;;;;;;5071168;28;19909;-53
2022/08/09 00:18:02;;;;;;;;;;;589.40;2432.00;;;;;;5070480;28;20891;-55
2022/08/09 00:20:27;;;;;;;;;;;589.50;2432.00;;;;;;5071177;28;19909;-60
2022/08/09 00:22:53;;;;;;;;;;;589.50;2432.00;;;;;;5070925;28;19947;-54
2022/08/09 00:25:19;;;;;;;;;;;589.50;2432.00;;;;;;5071066;28;20432;-60
2022/08/09 00:27:44;;;;;;;;;;;589.50;2432.00;;;;;;5070464;28;19922;-59
2022/08/09 00:30:10;;;;;;;;;;;589.40;2432.00;;;;;;5070725;28;20341;-55
2022/08/09 00:32:36;;;;;;;;;;;589.30;2432.00;;;;;;5070825;28;19963;-59
2022/08/09 00:35:02;;;;;;;;;;;589.30;2432.00;;;;;;5071105;28;19961;-57
2022/08/09 00:37:27;;;;;;;;;;;589.40;2432.00;;;;;;5070664;28;19908;-61
2022/08/09 00:39:53;;;;;;;;;;;;;;;;;;5070683;28;20323;-55
2022/08/09 00:42:19;;;;;;;;;;;589.50;2432.00;;;;;;5070639;28;19908;-61
2022/08/09 00:44:44;;;;;;;;;;;589.50;2432.00;;;;;;5070585;28;20358;-57
2022/08/09 00:47:10;;;;;;;;;;;589.50;2432.00;;;;;;5070596;28;20013;-56
2022/08/09 00:49:35;;;;;;;;;;;589.40;2432.00;;;;;;5070543;28;19920;-61
2022/08/09 00:52:01;;;;;;;;;;;589.30;2432.00;;;;;;5070702;28;20374;-61
2022/08/09 00:54:27;;;;;;;;;;;589.40;2432.00;;;;;;5070575;28;19909;-53
2022/08/09 00:56:53;;;;;;;;;;;589.40;2432.00;;;;;;5070324;28;19915;-54
2022/08/09 00:59:18;;;;;;;;;;;589.40;2432.00;;;;;;5070618;28;19996;-61
2022/08/09 01:01:46;;;;;;;;;;;589.30;2432.00;;;;;;5070152;28;19920;-60
2022/08/09 01:04:11;;;;;;;;;;;589.20;2432.00;;;;;;5070576;28;20352;-53
2022/08/09 01:06:47;;;;;;;;;;;589.10;2432.00;;;;;;5070401;28;19954;-54
2022/08/09 01:09:18;;;;;;;;;;;589.10;2432.00;;;;;;5070251;28;19939;-55
2022/08/09 01:11:59;;;;;;;;;;;588.90;2432.00;;;;;;5070171;28;20400;-60
2022/08/09 01:14:29;;;;;;;;;;;588.80;2432.00;;;;;;5070235;28;19951;-60
2022/08/09 01:16:58;;;;;;;;;;;564.10;2432.00;;;;;;5070349;28;19909;-59
2022/08/09 01:19:35;;;;;;;;;;;564.00;2432.00;;;;;;5070211;28;19908;-54
2022/08/09 01:22:04;;;;;;;;;;;564.00;2432.00;;;;;;5070454;28;19916;-57
2022/08/09 01:24:29;;;;;;;;;;;563.90;2432.00;;;;;;5070435;28;19912;-60
2022/08/09 01:27:01;;;;;;;;;;;563.90;2432.00;;;;;;5070161;28;19954;-60
2022/08/09 01:29:30;;;;;;;;;;;563.80;2432.00;;;;;;5073002;28;20011;-60
2022/08/09 01:31:58;;;;;;;;;;;563.70;2432.00;;;;;;5073844;28;19923;-61
2022/08/09 01:34:25;;;;;;;;;;;563.80;2432.00;;;;;;5073791;28;19908;-53
2022/08/09 01:36:51;;;;;;;;;;;563.90;2432.00;;;;;;5073772;28;19951;-54
2022/08/09 01:39:18;;;;;;;;;;;563.70;2432.00;;;;;;5073936;28;19947;-54
2022/08/09 01:41:44;;;;;;;;;;;563.80;2432.00;;;;;;5073549;28;20343;-60
2022/08/09 01:44:11;;;;;;;;;;;563.70;2432.00;;;;;;5073757;28;19920;-60
2022/08/09 01:46:38;;;;;;;;;;;563.60;2432.00;;;;;;5073550;28;19954;-60
2022/08/09 01:49:05;;;;;;;;;;;563.60;2432.00;;;;;;5073418;28;19916;-60
2022/08/09 01:51:32;;;;;;;;;;;563.60;2432.00;;;;;;5073709;28;19915;-54
2022/08/09 01:54:00;;;;;;;;;;;563.50;2432.00;;;;;;5073624;28;19958;-53
2022/08/09 01:56:26;;;;;;;;;;;563.60;2432.00;;;;;;5073412;28;20358;-60
2022/08/09 01:58:52;;;;;;;;;;;563.60;2432.00;;;;;;5073763;28;19915;-60
2022/08/09 02:01:18;;;;;;;;;;;563.50;2432.00;;;;;;5073020;28;19920;-57
2022/08/09 02:03:45;;;;;;;;;;;563.50;2432.00;;;;;;5073383;28;19912;-54
2022/08/09 02:06:11;;;;;;;;;;;563.50;2432.00;;;;;;5073374;28;19912;-60
2022/08/09 02:08:37;;;;;;;;;;;563.60;2432.00;;;;;;5073113;28;19931;-54
2022/08/09 02:11:04;;;;;;;;;;;563.50;2432.00;;;;;;5073248;28;19908;-54
2022/08/09 02:13:30;;;;;;;;;;;563.40;2432.00;;;;;;5073098;28;20362;-57
2022/08/09 02:15:58;;;;;;;;;;;563.30;2432.00;;;;;;5072938;28;19916;-54
2022/08/09 02:18:25;;;;;;;;;;;563.30;2432.00;;;;;;5073045;28;19909;-60
2022/08/09 02:20:55;;;;;;;;;;;563.20;2432.00;;;;;;5073095;28;19908;-54
2022/08/09 02:23:33;;;;;;;;;;;563.20;2432.00;;;;;;5072959;28;19916;-55
2022/08/09 02:26:00;;;;;;;;;;;563.20;2432.00;;;;;;5072924;28;20011;-54
2022/08/09 02:28:29;;;;;;;;;;;538.50;2406.40;;;;;;5072711;28;19917;-61
2022/08/09 02:31:03;;;;;;;;;;;538.50;2406.40;;;;;;5072760;28;19912;-54
2022/08/09 02:33:31;;;;;;;;;;;538.50;2406.40;;;;;;5072864;28;19999;-54
2022/08/09 02:35:58;;;;;;;;;;;563.20;2432.00;;;;;;5072756;28;19908;-53
2022/08/09 02:38:26;;;;;;;;;;;563.30;2432.00;;;;;;5072447;28;19952;-60
2022/08/09 02:40:52;;;;;;;;;;;563.20;2432.00;;;;;;5072204;28;19909;-60
2022/08/09 02:43:19;;;;;;;;;;;538.50;2406.40;;;;;;5072537;28;19995;-60
2022/08/09 02:45:44;;;;;;;;;;;538.50;2406.40;;;;;;5072434;28;19908;-59
2022/08/09 02:48:13;;;;;;;;;;;538.40;2406.40;;;;;;5072429;28;19927;-56
2022/08/09 02:50:51;;;;;;;;;;;538.40;2406.40;;;;;;5072509;28;19968;-59
2022/08/09 02:53:21;;;;;;;;;;;538.40;2406.40;;;;;;5072335;28;20422;-60
2022/08/09 02:55:47;;;;;;;;;;;538.40;2406.40;;;;;;5072443;28;19909;-59
2022/08/09 02:58:17;;;;;;;;;;;538.40;2406.40;;;;;;5072128;28;19914;-54
2022/08/09 03:00:43;;;;;;;;;;;538.30;2406.40;;;;;;5072064;28;20332;-59
2022/08/09 03:03:09;;;;;;;;;;;538.30;2406.40;;;;;;5072377;28;19912;-59
2022/08/09 03:05:36;;;;;;;;;;;538.30;2406.40;;;;;;5071913;28;19908;-54
2022/08/09 03:08:03;;;;;;;;;;;538.30;2406.40;;;;;;5072071;28;19970;-60
2022/08/09 03:10:29;;;;;;;;;;;538.30;2406.40;;;;;;5072090;28;20358;-54
2022/08/09 03:12:55;;;;;;;;;;;538.30;2406.40;;;;;;5071844;28;20312;-56
2022/08/09 03:15:22;;;;;;;;;;;538.30;2406.40;;;;;;5071951;28;19912;-55
2022/08/09 03:17:48;;;;;;;;;;;538.30;2406.40;;;;;;5071700;28;19912;-57
2022/08/09 03:20:14;;;;;;;;;;;538.20;2406.40;;;;;;5071573;28;19955;-54
2022/08/09 03:22:43;;;;;;;;;;;538.10;2406.40;;;;;;5071861;28;19935;-59
2022/08/09 03:25:09;;;;;;;;;;;538.10;2406.40;;;;;;5071853;28;19915;-59
2022/08/09 03:27:36;;;;;;;;;;;538.10;2406.40;;;;;;5071381;28;19934;-59
2022/08/09 03:30:01;;;;;;;;;;;538.10;2406.40;;;;;;5071504;28;19916;-53
2022/08/09 03:32:28;;;;;;;;;;;538.10;2406.40;;;;;;5071532;28;20370;-59
2022/08/09 03:34:55;;;;;;;;;;;538.10;2406.40;;;;;;5071389;28;20439;-54
2022/08/09 03:37:21;;;;;;;;;;;538.10;2406.40;;;;;;5071435;28;20359;-54
2022/08/09 03:39:47;;;;;;;;;;;538.10;2406.40;;;;;;5071227;28;19909;-58
2022/08/09 03:42:13;;;;;;;;;;;538.20;2406.40;;;;;;5071293;28;19915;-55
2022/08/09 03:44:39;;;;;;;;;;;538.30;2406.40;;;;;;5071326;28;19908;-58
2022/08/09 03:47:04;;;;;;;;;;;538.30;2406.40;;;;;;5071167;28;19909;-59
2022/08/09 03:49:31;;;;;;;;;;;538.30;2406.40;;;;;;5071218;28;19921;-59
2022/08/09 03:51:57;;;;;;;;;;;538.30;2406.40;;;;;;5070373;28;19908;-55
2022/08/09 03:54:25;;;;;;;;;;;538.30;2406.40;;;;;;5071326;28;20094;-54
2022/08/09 03:56:52;;;;;;;;;;;538.30;2406.40;;;;;;5071380;28;20270;-54
2022/08/09 03:59:18;;;;;;;;;;;538.40;2406.40;;;;;;5071217;28;20002;-59
2022/08/09 04:01:44;;;;;;;;;;;538.40;2406.40;;;;;;5070876;28;19986;-54
2022/08/09 04:04:10;;;;;;;;;;;538.40;2406.40;;;;;;5071178;28;19925;-59
2022/08/09 04:06:37;;;;;;;;;;;563.20;2432.00;;;;;;5071205;28;19961;-58
2022/08/09 04:09:05;;;;;;;;;;;538.50;2406.40;;;;;;5071319;28;19917;-60
2022/08/09 04:11:50;;;;;;;;;;;563.20;2432.00;;;;;;5071188;28;19915;-54
2022/08/09 04:14:19;;;;;;;;;;;563.20;2432.00;;;;;;5070869;28;19991;-57
2022/08/09 04:16:45;;;;;;;;;;;563.30;2432.00;;;;;;5070846;28;19908;-57
2022/08/09 04:19:12;;;;;;;;;;;563.40;2432.00;;;;;;5071042;28;20269;-55
2022/08/09 04:21:38;;;;;;;;;;;563.60;2432.00;;;;;;5070982;28;19916;-59
2022/08/09 04:24:03;;;;;;;;;;;563.60;2432.00;;;;;;5070896;28;19908;-53
2022/08/09 04:26:29;;;;;;;;;;;563.60;2432.00;;;;;;5070929;28;19995;-59
2022/08/09 04:28:55;;;;;;;;;;;563.60;2432.00;;;;;;5070603;28;20466;-54
2022/08/09 04:31:20;;;;;;;;;;;563.70;2432.00;;;;;;5070711;28;19979;-59
2022/08/09 04:33:46;;;;;;;;;;;563.70;2432.00;;;;;;5070782;28;19913;-53
2022/08/09 04:36:11;;;;;;;;;;;563.60;2432.00;;;;;;5070945;28;19947;-54
2022/08/09 04:38:37;;;;;;;;;;;563.60;2432.00;;;;;;5070679;28;20354;-54
2022/08/09 04:41:02;;;;;;;;;;;563.50;2432.00;;;;;;5070946;28;20591;-60
2022/08/09 04:43:28;;;;;;;;;;;563.50;2432.00;;;;;;5070530;28;19954;-59
2022/08/09 04:45:53;;;;;;;;;;;563.50;2432.00;;;;;;5070270;28;19913;-57
2022/08/09 04:48:19;;;;;;;;;;;563.70;2432.00;;;;;;5070802;28;19951;-58
2022/08/09 04:50:44;;;;;;;;;;;563.70;2432.00;;;;;;5070198;28;19912;-59
2022/08/09 04:53:10;;;;;;;;;;;563.70;2432.00;;;;;;5070533;28;19919;-57
2022/08/09 04:55:36;;;;;;;;;;;563.90;2432.00;;;;;;5070527;28;20003;-53
2022/08/09 04:58:02;;;;;;;;;;;563.90;2432.00;;;;;;5070512;28;19916;-59
2022/08/09 05:00:28;;;;;;;;;;;564.00;2432.00;;;;;;5070551;28;19913;-59
2022/08/09 05:02:55;;;;;;;;;;;564.10;2432.00;;;;;;5071182;28;20347;-59
2022/08/09 05:05:21;;;;;;;;;;;564.10;2432.00;;;;;;5074593;28;19912;-54
2022/08/09 05:07:46;;;;;;;;;;;588.80;2432.00;;;;;;5074410;28;19919;-60
2022/08/09 05:10:13;;;;;;;;;;;588.90;2432.00;;;;;;5074444;28;19915;-59
2022/08/09 05:12:39;;;;;;;;;;;588.80;2432.00;;;;;;5074269;28;19916;-54
2022/08/09 05:15:05;;;;;;;;;;;588.80;2432.00;;;;;;5074199;28;19909;-53
2022/08/09 05:17:30;;;;;;;;;;;588.90;2432.00;;;;;;5074111;28;19919;-59
2022/08/09 05:19:56;;;;;;;;;;;588.80;2432.00;;;;;;5074016;28;19969;-59
2022/08/09 05:22:22;;;;;;;;;;;588.80;2432.00;;;;;;5074128;28;19962;-59
2022/08/09 05:24:47;;;;;;;;;;;588.80;2432.00;;;;;;5074071;28;19912;-54
2022/08/09 05:27:13;;;;;;;;;;;564.10;2432.00;;;;;;5074039;28;19908;-57
2022/08/09 05:29:38;;;;;;;;;;;563.90;2432.00;;;;;;5074019;28;19916;-56
2022/08/09 05:32:04;;;;;;;;;;;564.00;2432.00;;;;;;5073927;28;20003;-53
2022/08/09 05:34:30;;;;;;;;;;;588.80;2432.00;;;;;;5074135;28;19919;-56
2022/08/09 05:36:56;;;;;;;;;;;589.30;2432.00;;;;;;5073825;28;19932;-54
2022/08/09 05:39:22;;;;;;;;;;;589.70;2432.00;;;;;;5074134;28;19908;-54
2022/08/09 05:41:48;;;;;;;;;;;614.70;2432.00;;;;;;5073866;28;19912;-59
2022/08/09 05:44:14;;;;;;;;;;;615.00;2432.00;;;;;;5073621;28;19909;-59
2022/08/09 05:46:40;;;;;;;;;;;615.30;2432.00;;;;;;5073893;28;19913;-57
2022/08/09 05:49:06;;;;;;;;;;;614.90;2432.00;;;;;;5073462;28;20369;-59
2022/08/09 05:51:31;;;;;;;;;;;614.50;2432.00;;;;;;5073893;28;19908;-53
2022/08/09 05:53:57;;;;;;;;;;;589.70;2432.00;;;;;;5073791;28;19908;-54
2022/08/09 05:56:22;;;;;;;;;;;614.40;2432.00;;;;;;5073777;28;20381;-56
2022/08/09 05:58:49;;;;;;;;;;;589.70;2432.00;;;;;;5073542;28;19909;-54
2022/08/09 06:01:15;;;;;;;;;;;589.60;2432.00;;;;;;5073183;28;19924;-53
2022/08/09 06:03:40;;;;;;;;;;;589.30;2432.00;;;;;;5073450;28;19917;-54
2022/08/09 06:06:06;;;;;;;;;;;589.20;2432.00;;;;;;5073508;28;20263;-54
2022/08/09 06:08:31;;;;;;;;;;;589.10;2432.00;;;;;;5073626;28;19939;-58
2022/08/09 06:10:57;;;;;;;;;;;589.10;2432.00;;;;;;5073077;28;20003;-53
2022/08/09 06:13:23;;;;;;;;;;;589.00;2432.00;;;;;;5072422;28;19920;-54
2022/08/09 06:15:49;;;;;;;;;;;588.90;2432.00;;;;;;5072057;28;19919;-58
2022/08/09 06:18:15;;;;;;;;;;;588.90;2432.00;;;;;;5072578;28;19916;-58
2022/08/09 06:20:41;;;;;;;;;;;588.90;2432.00;;;;;;5073161;28;20003;-58
2022/08/09 06:23:07;;;;;;;;;;;588.90;2432.00;;;;;;5072632;28;19912;-58
2022/08/09 06:25:32;;;;;;;;;;;588.90;2432.00;;;;;;5072834;28;19969;-58
2022/08/09 06:27:58;;;;;;;;;;;589.00;2432.00;;;;;;5072342;28;20007;-58
2022/08/09 06:30:24;;;;;;;;;;;589.30;2432.00;;;;;;5072287;28;19920;-53
2022/08/09 06:32:51;;;;;;;;;;;589.30;2432.00;;;;;;5072517;28;20338;-55
2022/08/09 06:35:18;;;;;;;;;;;589.50;2432.00;;;;;;5077158;28;19923;-59
2022/08/09 06:37:43;;;;;;;;;;;614.50;2432.00;;;;;;5078033;28;19991;-54
2022/08/09 06:40:09;;;;;;;;;;;614.60;2432.00;;;;;;5078966;28;20450;-54
2022/08/09 06:42:35;;;;;;;;;;;614.50;2432.00;;;;;;5072402;28;19954;-53
2022/08/09 06:45:01;;;;;;;;;;;589.60;2432.00;;;;;;5072761;28;20251;-54
2022/08/09 06:47:26;;;;;;;;;;;589.30;2432.00;;;;;;5072398;28;20270;-53
2022/08/09 06:49:55;;;;;;;;;;;589.20;2432.00;;;;;;5072229;28;20328;-54
2022/08/09 06:52:20;;;;;;;;;;;589.40;2432.00;;;;;;5076973;28;19952;-57
2022/08/09 06:54:46;;;;;;;;;;;589.20;2432.00;;;;;;5071840;28;19963;-52
2022/08/09 06:57:13;;;;;;;;;;;589.30;2432.00;;;;;;5072194;28;20328;-53
2022/08/09 06:59:39;;;;;;;;;;;589.30;2432.00;;;;;;5071666;28;20270;-53
2022/08/09 07:02:05;;;;;;;;;;;589.30;2432.00;;;;;;5071431;28;20397;-53
2022/08/09 07:04:30;;;;;;;;;;;589.60;2432.00;;;;;;5071823;28;19912;-55
2022/08/09 07:06:56;;;;;;;;;;;614.50;2432.00;;;;;;5071589;28;20289;-53
2022/08/09 07:09:22;;;;;;;;;;;614.80;2432.00;;;;;;5071757;28;20325;-53
2022/08/09 07:11:47;;;;;;;;;;;615.00;2432.00;;;;;;5071243;28;19919;-53
2022/08/09 07:14:16;;;;;;;;;;;615.00;2432.00;;;;;;5071651;28;19934;-54
2022/08/09 07:16:43;;;;;;;;;;;614.90;2432.00;;;;;;5069096;28;20355;-52
2022/08/09 07:19:11;;;;;;;;;;;614.80;2432.00;;;;;;5071712;28;19934;-55
2022/08/09 07:21:37;;;;;;;;;;;615.00;2432.00;;;;;;5070171;28;20265;-56
2022/08/09 07:24:03;;;;;;;;;;;614.90;2432.00;;;;;;5071379;28;19908;-57
2022/08/09 07:26:29;;;;;;;;;;;614.90;2432.00;;;;;;5071540;28;19969;-57
2022/08/09 07:28:55;;;;;;;;;;;614.90;2432.00;;;;;;5070164;28;20370;-56
2022/08/09 07:31:20;;;;;;;;;;;614.80;2432.00;;;;;;5071108;28;19917;-57
2022/08/09 07:33:46;;;;;;;;;;;614.70;2432.00;;;;;;5070099;28;19965;-58
2022/08/09 07:36:13;;;;;;;;;;;614.70;2432.00;;;;;;5069473;28;19962;-56
2022/08/09 07:38:39;;;;;;;;;;;614.60;2432.00;;;;;;5069040;28;19913;-56
2022/08/09 07:41:04;;;;;;;;;;;614.50;2432.00;;;;;;5069032;28;19915;-55
2022/08/09 07:43:30;;;;;;;;;;;614.60;2432.00;;;;;;5068816;28;19919;-59
2022/08/09 07:45:56;;;;;;;;;;;614.70;2432.00;;;;;;5068632;28;20367;-59
2022/08/09 07:48:22;;;;;;;;;;;614.80;2432.00;;;;;;5068235;28;19916;-56
2022/08/09 07:50:48;;;;;;;;;;;615.30;2432.00;;;;;;5068779;28;19916;-56
2022/08/09 07:53:13;;;;;;;;;;;640.60;2432.00;;;;;;5069008;28;19927;-57
2022/08/09 07:55:39;;;;;;;;;;;666.00;2432.00;;;;;;5068875;28;19909;-59
2022/08/09 07:58:04;;;;;;;;;;;691.20;2432.00;;;;;;5068633;28;20366;-55
2022/08/09 08:00:30;;;;;;;;;;;691.70;2432.00;;;;;;5068652;28;19951;-56
2022/08/09 08:02:56;;;;;;;;;;;692.10;2432.00;;;;;;5068963;28;20358;-55
2022/08/09 08:05:23;;;;;;;;;;;717.10;2432.00;;;;;;5069210;28;19912;-55
2022/08/09 08:07:49;;;;;;;;;;;717.60;2380.80;;;;;;5069111;28;20346;-58
2022/08/09 08:10:14;;;;;;;;;;;742.40;2329.60;;;;;;5069215;28;19962;-56
2022/08/09 08:12:41;;;;;;;;;;;743.30;2201.60;;;;;;5069629;28;19913;-57
2022/08/09 08:15:08;;;;;;;;;;;768.00;2150.40;;;;;;5073766;28;20270;-58
2022/08/09 08:17:34;;;;;;;;;;;768.00;2124.80;;;;;;5074566;28;19913;-54
2022/08/09 08:19:59;;;;;;;;;;;743.00;2150.40;;;;;;5069176;28;20346;-54
2022/08/09 08:22:25;;;;;;;;;;;743.10;2099.20;;;;;;5068835;28;20303;-54
2022/08/09 08:24:54;;;;;;;;;;;768.10;2099.20;;;;;;5069137;28;19920;-54
2022/08/09 08:27:23;;;;;;;;;;;768.10;2048.00;;;;;;5068676;28;20121;-55
2022/08/09 08:29:49;;;;;;;;;;;768.20;2073.60;;;;;;5068787;28;19960;-57
2022/08/09 08:32:15;;;;;;;;;;;743.30;2048.00;;;;;;5068737;28;19912;-55
2022/08/09 08:34:41;;;;;;;;;;;768.30;2048.00;;;;;;5068908;28;20073;-54
2022/08/09 08:37:06;;;;;;;;;;;768.60;1996.80;;;;;;5068475;28;19913;-55
2022/08/09 08:39:32;;;;;;;;;;;768.90;1996.80;;;;;;5074250;28;19947;-59
2022/08/09 08:41:58;;;;;;;;;;;768.70;1996.80;;;;;;5074933;28;20389;-56
2022/08/09 08:44:24;;;;;;;;;;;768.60;1996.80;;;;;;5074848;28;19920;-54
2022/08/09 08:46:50;;;;;;;;;;;768.00;2048.00;;;;;;5075134;28;19954;-54
2022/08/09 08:49:16;;;;;;;;;;;743.00;2073.60;;;;;;5074663;28;19920;-54
2022/08/09 08:51:42;;;;;;;;;;;743.00;2073.60;;;;;;5074730;28;20007;-54
2022/08/09 08:54:07;;;;;;;;;;;742.40;2073.60;;;;;;5074527;28;19971;-54
2022/08/09 08:56:37;;;;;;;;;;;717.70;2099.20;;;;;;5074780;28;19909;-56
2022/08/09 08:59:04;;;;;;;;;;;717.40;2124.80;;;;;;5074698;28;19948;-53
2022/08/09 09:01:30;;;;;;;;;;;717.10;2176.00;;;;;;5074423;28;19963;-58
2022/08/09 09:03:56;;;;;;;;;;;716.90;2201.60;;;;;;5074395;28;19912;-60
2022/08/09 09:06:22;;;;;;;;;;;717.00;2201.60;;;;;;5074445;28;19908;-59
2022/08/09 09:08:48;;;;;;;;;;;716.80;2201.60;;;;;;5074396;28;19943;-60
2022/08/09 09:11:14;;;;;;;;;;;692.00;2252.80;;;;;;5074298;28;19991;-56
2022/08/09 09:13:42;;;;;;;;;;;692.10;2227.20;;;;;;5074318;28;20368;-56
2022/08/09 09:16:08;;;;;;;;;;;692.10;2252.80;;;;;;5074129;28;20389;-57
2022/08/09 09:18:33;;;;;;;;;;;691.90;2252.80;;;;;;5073313;28;19909;-59
2022/08/09 09:20:59;;;;;;;;;;;716.90;2252.80;;;;;;5073839;28;19908;-60
2022/08/09 09:23:54;;;;;;;;;;;717.10;2227.20;;;;;;5073910;28;19908;-54
2022/08/09 09:26:22;;;;;;;;;;;717.10;2227.20;;;;;;4999480;28;19914;-57
2022/08/09 09:28:47;;;;;;;;;;;717.60;2201.60;;;;;;5000622;28;20364;-58
2022/08/09 09:31:17;;;;;;;;;;;742.40;2201.60;;;;;;5002591;28;19917;-54
2022/08/09 09:33:43;;;;;;;;;;;742.50;2176.00;;;;;;5002447;28;20023;-56
2022/08/09 09:36:09;;;;;;;;;;;743.00;2099.20;;;;;;5000773;28;20425;-55
2022/08/09 09:38:42;;;;;;;;;;;768.20;2048.00;;;;;;5002222;28;19909;-57
2022/08/09 09:41:07;;;;;;;;;;;768.70;1996.80;;;;;;5001328;28;19914;-57
2022/08/09 09:43:33;;;;;;;;;;;768.90;1945.60;;;;;;4997908;28;20372;-55
2022/08/09 09:46:01;;;;;;;;;;;793.70;1971.20;;;;;;5001913;28;19910;-59
2022/08/09 09:48:28;;;;;;;;;;;768.80;1945.60;;;;;;5002111;28;19953;-59
2022/08/09 09:50:53;;;;;;;;;;;768.60;1971.20;;;;;;4996669;28;19917;-57
2022/08/09 09:53:20;;;;;;;;;;;768.70;1945.60;;;;;;5001893;28;19909;-57
2022/08/09 09:55:56;;;;;;;;;;;768.80;1945.60;;;;;;5001837;28;19913;-58
2022/08/09 09:58:22;;;;;;;;;;;768.60;1945.60;;;;;;5000146;28;19914;-54
2022/08/09 10:00:56;;;;;;;;;;;768.40;1945.60;;;;;;4999936;28;20447;-59
2022/08/09 10:03:36;;;;;;;;;;;768.60;1971.20;;;;;;5023820;28;19924;-56
2022/08/09 10:06:01;;;;;;;;;;;768.30;1996.80;;;;;;5033667;28;19910;-56
2022/08/09 10:08:27;;;;;;;;;;;768.40;1945.60;;;;;;5033267;28;19917;-55
2022/08/09 10:10:53;;;;;;;;;;;768.20;1996.80;;;;;;5033372;28;20268;-57
2022/08/09 10:13:18;;;;;;;;;;;768.40;1996.80;;;;;;5033302;28;19909;-57
2022/08/09 10:15:48;;;;;;;;;;;768.30;1996.80;;;;;;5033066;28;20019;-56
2022/08/09 10:18:13;;;;;;;;;;;768.60;1971.20;;;;;;5033285;28;19953;-57
2022/08/09 10:20:39;;;;;;;;;;;768.60;1971.20;;;;;;5033467;28;19944;-59
2022/08/09 10:23:12;;;;;;;;;;;768.40;1971.20;;;;;;5033185;28;20316;-57
2022/08/09 10:25:38;;;;;;;;;;;768.60;1971.20;;;;;;5033063;28;19916;-56
2022/08/09 10:28:03;;;;;;;;;;;768.80;1920.00;;;;;;5032783;28;20346;-57
2022/08/09 10:30:29;;;;;;;;;;;768.10;1971.20;;;;;;5032971;28;19909;-59
2022/08/09 10:32:55;;;;;;;;;;;743.30;1996.80;;;;;;5032981;28;19925;-56
2022/08/09 10:35:20;;;;;;;;;;;768.20;2022.40;;;;;;5033238;28;19966;-58
2022/08/09 10:37:46;;;;;;;;;;;768.40;1971.20;;;;;;5032919;28;20044;-59
2022/08/09 10:40:12;;;;;;;;;;;768.40;1971.20;;;;;;5032924;28;19909;-56
2022/08/09 10:42:38;;;;;;;;;;;768.60;1971.20;;;;;;5032609;28;20007;-59
2022/08/09 10:45:06;;;;;;;;;;;743.30;1945.60;;;;;;5032356;28;20004;-59
2022/08/09 10:47:36;;;;;;;;;;;768.20;1971.20;;;;;;5032888;28;19924;-57
2022/08/09 10:50:05;;;;;;;;;;;743.20;1971.20;;;;;;5032636;28;19928;-57
2022/08/09 10:52:49;;;;;;;;;;;743.00;1971.20;;;;;;5029701;28;19979;-59
2022/08/09 10:55:19;;;;;;;;;;;768.20;1971.20;;;;;;5030325;28;19916;-58
2022/08/09 10:57:44;;;;;;;;;;;768.80;1920.00;;;;;;5030025;28;20095;-57
2022/08/09 11:00:28;;;;;;;;;;;768.90;1894.40;;;;;;5032437;28;20020;-55
2022/08/09 11:02:54;;;;;;;;;;;768.30;1920.00;;;;;;5070293;28;19916;-57
2022/08/09 11:05:21;;;;;;;;;;;768.40;1894.40;;;;;;5069886;28;20286;-58
2022/08/09 11:07:47;;;;;;;;;;;768.90;1894.40;;;;;;5069982;28;20264;-56
2022/08/09 11:10:13;;;;;;;;;;;768.90;1894.40;;;;;;5070132;28;20381;-57
2022/08/09 11:12:39;;;;;;;;;;;793.60;1920.00;;;;;;5069463;28;20010;-60
2022/08/09 11:15:23;;;;;;;;;;;793.60;1920.00;;;;;;5069523;28;19923;-61
2022/08/09 11:17:51;;;;;;;;;;;793.70;1868.80;;;;;;5069493;28;19912;-56
2022/08/09 11:20:18;;;;;;;;;;;793.90;1843.20;;;;;;5069750;28;19912;-56
2022/08/09 11:22:44;;;;;;;;;;;794.00;1843.20;;;;;;5069701;28;20375;-58
2022/08/09 11:25:10;;;;;;;;;;;794.20;1843.20;;;;;;5069712;28;19953;-55
2022/08/09 11:27:38;;;;;;;;;;;794.30;1817.60;;;;;;5069455;28;20354;-57
2022/08/09 11:30:07;;;;;;;;;;;793.80;1843.20;;;;;;5068930;28;19974;-57
2022/08/09 11:32:42;;;;;;;;;;;768.60;1868.80;;;;;;5069597;28;19919;-58
2022/08/09 11:35:18;;;;;;;;;;;793.90;1868.80;;;;;;5069483;28;19965;-57
2022/08/09 11:37:45;;;;;;;;;;;768.40;1868.80;;;;;;5069329;28;19916;-60
2022/08/09 11:40:13;;;;;;;;;;;768.80;1868.80;;;;;;5069489;28;19970;-59
2022/08/09 11:42:39;;;;;;;;;;;768.90;1843.20;;;;;;5069220;28;20309;-61
2022/08/09 11:45:16;;;;;;;;;;;793.70;1868.80;;;;;;5068779;28;19954;-61
2022/08/09 11:47:45;;;;;;;;;;;793.80;1868.80;;;;;;5069480;28;19916;-60
2022/08/09 11:50:11;;;;;;;;;;;793.80;1868.80;;;;;;5069310;28;19916;-58
2022/08/09 11:52:55;;;;;;;;;;;793.80;1868.80;;;;;;5069341;28;20019;-60
2022/08/09 11:55:32;;;;;;;;;;;794.00;1843.20;;;;;;5069315;28;20414;-58
2022/08/09 11:57:59;;;;;;;;;;;768.90;1817.60;;;;;;5068550;28;19965;-56
2022/08/09 12:00:26;;;;;;;;;;;768.70;1843.20;;;;;;5068796;28;19923;-57
2022/08/09 12:02:52;;;;;;;;;;;768.90;1843.20;;;;;;5069231;28;19965;-59
2022/08/09 12:05:18;;;;;;;;;;;768.80;1843.20;;;;;;5069015;28;19940;-56
2022/08/09 12:07:43;;;;;;;;;;;768.40;1843.20;;;;;;5068894;28;19955;-57
2022/08/09 12:10:10;;;;;;;;;;;768.40;1868.80;;;;;;5068885;28;19913;-55
2022/08/09 12:12:48;;;;;;;;;;;768.60;1868.80;;;;;;5068221;28;19909;-55
2022/08/09 12:15:22;;;;;;;;;;;768.00;1894.40;;;;;;5068930;28;19908;-58
2022/08/09 12:17:48;;;;;;;;;;;768.20;1894.40;;;;;;5069097;28;19912;-57
2022/08/09 12:20:15;;;;;;;;;;;768.40;1894.40;;;;;;5069143;28;20794;-60
2022/08/09 12:22:41;;;;;;;;;;;768.50;1868.80;;;;;;5068570;28;20418;-56
2022/08/09 12:25:17;;;;;;;;;;;768.60;1843.20;;;;;;5068341;28;20298;-60
2022/08/09 12:27:43;;;;;;;;;;;768.40;1868.80;;;;;;5073745;28;19924;-60
2022/08/09 12:30:08;;;;;;;;;;;768.50;1868.80;;;;;;5068085;28;20393;-60
2022/08/09 12:32:34;;;;;;;;;;;768.50;1868.80;;;;;;5068446;28;19952;-57
2022/08/09 12:35:01;;;;;;;;;;;768.60;1868.80;;;;;;5068872;28;19947;-57
2022/08/09 12:37:32;;;;;;;;;;;768.60;1894.40;;;;;;5068338;28;20291;-61
2022/08/09 12:40:08;;;;;;;;;;;768.80;1894.40;;;;;;5068631;28;20402;-61
2022/08/09 12:42:33;;;;;;;;;;;768.50;1868.80;;;;;;5068760;28;20007;-57
2022/08/09 12:44:59;;;;;;;;;;;768.60;1894.40;;;;;;5068692;28;20003;-60
2022/08/09 12:47:25;;;;;;;;;;;768.60;1894.40;;;;;;5068255;28;19937;-59
2022/08/09 12:52:38;;;;;;;;;;;768.60;1920.00;;;;;;5068374;28;19932;-55
2022/08/09 12:55:06;;;;;;;;;;;768.60;1920.00;;;;;;5068547;28;20274;-60
2022/08/09 12:57:36;;;;;;;;;;;768.90;1894.40;;;;;;5068651;28;19908;-60
2022/08/09 13:00:11;;;;;;;;;;;768.90;1868.80;;;;;;5068276;28;19958;-61
2022/08/09 13:02:52;;;;;;;;;;;793.60;1894.40;;;;;;5068117;28;19967;-60
2022/08/09 13:05:18;;;;;;;;;;;793.70;1868.80;;;;;;5068296;28;19912;-56
2022/08/09 13:08:02;;;;;;;;;;;793.70;1868.80;;;;;;5068832;28;19908;-56
2022/08/09 13:10:28;;;;;;;;;;;793.60;1868.80;;;;;;5070837;28;19958;-61
2022/08/09 13:12:54;;;;;;;;;;;793.60;1868.80;;;;;;5070403;28;19951;-57
2022/08/09 13:15:19;;;;;;;;;;;793.60;1868.80;;;;;;5070440;28;19908;-57
2022/08/09 13:17:45;;;;;;;;;;;768.80;1843.20;;;;;;5070387;28;19908;-60
2022/08/09 13:20:10;;;;;;;;;;;768.40;1868.80;;;;;;5073269;28;19913;-59
2022/08/09 13:22:46;;;;;;;;;;;768.40;1868.80;;;;;;5071629;28;20359;-60
2022/08/09 13:25:11;;;;;;;;;;;768.40;1868.80;;;;;;5073224;28;20370;-56
2022/08/09 13:27:38;;;;;;;;;;;768.50;1868.80;;;;;;5074011;28;20042;-61
2022/08/09 13:30:06;;;;;;;;;;;768.10;1920.00;;;;;;5072016;28;20359;-56
2022/08/09 13:32:46;;;;;;;;;;;768.10;1920.00;;;;;;5071651;28;20363;-60
2022/08/09 13:35:13;;;;;;;;;;;768.30;1920.00;;;;;;5078793;28;20015;-61
2022/08/09 13:37:39;;;;;;;;;;;768.00;1920.00;;;;;;5077393;28;19998;-57
2022/08/09 13:40:06;;;;;;;;;;;768.10;1945.60;;;;;;5071315;28;19989;-55
2022/08/09 13:42:31;;;;;;;;;;;743.30;1945.60;;;;;;5071557;28;19916;-56
2022/08/09 13:44:57;;;;;;;;;;;743.20;1971.20;;;;;;5071024;28;19912;-55